Time;durP1;ratioP1;P1;durP2;ratioP2;P2;SDS_P1;SDS_P2;PMS_P1;PMS_P2;Temp;Humidity;BMP_temperature;BMP_pressure;BME280_temperature;BME280_humidity;BME280_pressure;Samples;Min_cycle;Max_cycle;Signal;HPM_P1;HPM_P2
2023/03/02 00:01:40;;;;;;;;;;;;;;;3.44;100.00;93739.78;5009790;28;19939;-57
2023/03/02 00:04:07;;;;;;;;;;;;;;;3.48;100.00;93743.03;5009762;28;20056;-57
2023/03/02 00:06:32;;;;;;;;;;;;;;;3.42;100.00;93747.72;5008361;28;19914;-57
2023/03/02 00:08:59;;;;;;;;;;;;;;;3.42;100.00;93744.97;5008282;28;20463;-57
2023/03/02 00:11:25;;;;;;;;;;;;;;;3.53;100.00;93747.00;5009461;28;19925;-55
2023/03/02 00:13:50;;;;;;;;;;;;;;;3.38;100.00;93741.75;5009380;28;19920;-57
2023/03/02 00:16:15;;;;;;;;;;;;;;;3.45;100.00;93745.97;5009925;28;19924;-57
2023/03/02 00:18:41;;;;;;;;;;;;;;;3.39;100.00;93745.22;5009288;28;19939;-57
2023/03/02 00:21:09;;;;;;;;;;;;;;;3.44;100.00;93747.22;5013260;28;19917;-57
2023/03/02 00:23:34;;;;;;;;;;;;;;;3.37;100.00;93745.00;5029263;28;19921;-56
2023/03/02 00:26:00;;;;;;;;;;;;;;;3.47;100.00;93736.06;5029279;28;19970;-57
2023/03/02 00:28:25;;;;;;;;;;;;;;;3.43;100.00;93734.81;5009035;28;19976;-57
2023/03/02 00:30:50;;;;;;;;;;;;;;;3.37;100.00;93732.09;5008792;28;19924;-57
2023/03/02 00:33:15;;;;;;;;;;;;;;;3.43;100.00;93732.09;5008845;28;20385;-57
2023/03/02 00:35:41;;;;;;;;;;;;;;;3.48;100.00;93728.63;5008862;28;19925;-57
2023/03/02 00:38:07;;;;;;;;;;;;;;;3.46;100.00;93717.47;5008952;28;19917;-56
2023/03/02 00:40:33;;;;;;;;;;;;;;;3.51;100.00;93722.91;5009001;28;19917;-57
2023/03/02 00:42:58;;;;;;;;;;;;;;;3.55;100.00;93733.59;5008945;28;20410;-57
2023/03/02 00:45:23;;;;;;;;;;;;;;;3.59;100.00;93726.66;5009158;28;19925;-57
2023/03/02 00:47:49;;;;;;;;;;;;;;;3.52;100.00;93729.13;5009184;28;19951;-57
2023/03/02 00:50:14;;;;;;;;;;;;;;;3.56;100.00;93722.16;5026388;28;19913;-57
2023/03/02 00:52:39;;;;;;;;;;;;;;;3.58;100.00;93721.66;5019716;28;19922;-58
2023/03/02 00:55:05;;;;;;;;;;;;;;;3.31;100.00;93714.22;5008749;28;19996;-57
2023/03/02 00:57:30;;;;;;;;;;;;;;;3.38;100.00;93713.75;5008976;28;20491;-56
2023/03/02 00:59:55;;;;;;;;;;;;;;;3.30;100.00;93712.72;5008924;28;19914;-57
2023/03/02 01:02:21;;;;;;;;;;;;;;;3.48;100.00;93712.25;5008795;28;19921;-57
2023/03/02 01:04:47;;;;;;;;;;;;;;;3.26;100.00;93715.72;5008695;28;20356;-57
2023/03/02 01:07:14;;;;;;;;;;;;;;;3.29;100.00;93706.50;5008873;28;19917;-57
2023/03/02 01:09:39;;;;;;;;;;;;;;;3.37;100.00;93709.50;5008652;28;19927;-57
2023/03/02 01:12:08;;;;;;;;;;;;;;;3.41;100.00;93701.81;5008234;28;19917;-57
2023/03/02 01:14:34;;;;;;;;;;;;;;;3.52;100.00;93694.38;5008400;28;19918;-57
2023/03/02 01:16:59;;;;;;;;;;;;;;;3.48;100.00;93702.06;5009208;28;20412;-57
2023/03/02 01:19:24;;;;;;;;;;;;;;;3.41;100.00;93701.81;5028384;28;19920;-56
2023/03/02 01:21:49;;;;;;;;;;;;;;;3.39;100.00;93693.38;5027870;28;20446;-57
2023/03/02 01:24:15;;;;;;;;;;;;;;;3.16;100.00;93694.63;5027604;28;19917;-57
2023/03/02 01:26:40;;;;;;;;;;;;;;;3.21;100.00;93683.69;5022511;28;19918;-57
2023/03/02 01:29:05;;;;;;;;;;;;;;;3.37;100.00;93693.88;5008385;28;20313;-57
2023/03/02 01:31:31;;;;;;;;;;;;;;;3.47;100.00;93686.94;5010180;28;19971;-57
2023/03/02 01:33:56;;;;;;;;;;;;;;;3.53;100.00;93681.47;5007811;28;19925;-57
2023/03/02 01:36:23;;;;;;;;;;;;;;;3.29;100.00;93678.50;5007698;28;19921;-57
2023/03/02 01:38:48;;;;;;;;;;;;;;;3.08;100.00;93670.56;5008105;28;19913;-57
2023/03/02 01:41:14;;;;;;;;;;;;;;;3.16;100.00;93670.81;5008491;28;19932;-56
2023/03/02 01:43:39;;;;;;;;;;;;;;;3.11;100.00;93665.34;5007883;28;20421;-56
2023/03/02 01:46:24;;;;;;;;;;;;;;;3.20;100.00;93654.94;5007721;28;19921;-56
2023/03/02 01:48:56;;;;;;;;;;;;;;;3.25;100.00;93656.19;5013694;28;20688;-57
2023/03/02 01:51:22;;;;;;;;;;;;;;;3.25;100.00;93653.47;5027298;28;19948;-57
2023/03/02 01:53:49;;;;;;;;;;;;;;;3.29;100.00;93659.41;5009850;28;20028;-57
2023/03/02 01:56:15;;;;;;;;;;;;;;;3.28;100.00;93655.19;5007627;28;19924;-57
2023/03/02 01:58:40;;;;;;;;;;;;;;;3.41;100.00;93653.44;5006849;28;19914;-57
2023/03/02 02:01:14;;;;;;;;;;;;;;;3.17;100.00;93630.63;5008134;28;19919;-57
2023/03/02 02:03:39;;;;;;;;;;;;;;;3.19;100.00;93641.78;5008309;28;20293;-57
2023/03/02 02:06:22;;;;;;;;;;;;;;;3.19;100.00;93639.06;5007710;28;19925;-57
2023/03/02 02:08:48;;;;;;;;;;;;;;;3.15;100.00;93636.59;5008378;28;19913;-57
2023/03/02 02:11:13;;;;;;;;;;;;;;;3.14;100.00;93639.81;5007851;28;20450;-57
2023/03/02 02:13:38;;;;;;;;;;;;;;;2.91;100.00;93642.53;5012056;28;19928;-57
2023/03/02 02:16:04;;;;;;;;;;;;;;;2.81;100.00;93630.38;5027441;28;20038;-57
2023/03/02 02:18:29;;;;;;;;;;;;;;;2.98;100.00;93630.38;5026071;28;20420;-57
2023/03/02 02:20:54;;;;;;;;;;;;;;;2.90;100.00;93627.38;5027868;28;20559;-56
2023/03/02 02:23:29;;;;;;;;;;;;;;;2.97;100.00;93637.81;5027689;28;19940;-57
2023/03/02 02:25:54;;;;;;;;;;;;;;;2.97;100.00;93637.06;5027253;28;19936;-57
2023/03/02 02:28:21;;;;;;;;;;;;;;;3.04;100.00;93634.59;5008395;28;19918;-57
2023/03/02 02:30:46;;;;;;;;;;;;;;;3.09;100.00;93635.84;5006208;28;20427;-57
2023/03/02 02:33:13;;;;;;;;;;;;;;;3.06;100.00;93631.38;5009448;28;19960;-57
2023/03/02 02:35:39;;;;;;;;;;;;;;;3.12;100.00;93636.84;5005813;28;19921;-57
2023/03/02 02:38:05;;;;;;;;;;;;;;;3.11;100.00;93632.59;5005909;28;19925;-57
2023/03/02 02:40:39;;;;;;;;;;;;;;;3.14;100.00;93626.91;5006505;28;19918;-57
2023/03/02 02:43:05;;;;;;;;;;;;;;;3.18;100.00;93635.59;5007641;28;19928;-57
2023/03/02 02:45:30;;;;;;;;;;;;;;;3.24;100.00;93627.41;5006421;28;19918;-57
2023/03/02 02:47:55;;;;;;;;;;;;;;;3.08;100.00;93635.09;5005749;28;19951;-57
2023/03/02 02:50:23;;;;;;;;;;;;;;;3.04;100.00;93629.16;5007529;28;19979;-57
2023/03/02 02:52:54;;;;;;;;;;;;;;;3.17;100.00;93634.09;5007242;28;19924;-57
2023/03/02 02:55:20;;;;;;;;;;;;;;;3.19;100.00;93628.13;5013748;28;19975;-57
2023/03/02 02:57:45;;;;;;;;;;;;;;;3.27;100.00;93629.16;5006192;28;20370;-57
2023/03/02 03:00:14;;;;;;;;;;;;;;;3.21;100.00;93628.38;5007583;28;20008;-57
2023/03/02 03:02:40;;;;;;;;;;;;;;;3.22;100.00;93629.88;5009385;28;19957;-57
2023/03/02 03:05:08;;;;;;;;;;;;;;;3.21;100.00;93618.22;5010051;28;19968;-57
2023/03/02 03:07:33;;;;;;;;;;;;;;;3.21;100.00;93617.47;5010742;28;19989;-57
2023/03/02 03:10:19;;;;;;;;;;;;;;;3.12;100.00;93615.03;5010834;28;19933;-57
2023/03/02 03:12:44;;;;;;;;;;;;;;;3.15;100.00;93619.47;5006677;28;19921;-57
2023/03/02 03:15:10;;;;;;;;;;;;;;;3.23;100.00;93615.00;5010857;28;20420;-57
2023/03/02 03:17:35;;;;;;;;;;;;;;;3.10;100.00;93612.03;5010606;28;19924;-57
2023/03/02 03:20:05;;;;;;;;;;;;;;;3.06;100.00;93620.47;5010352;28;20397;-57
2023/03/02 03:22:31;;;;;;;;;;;;;;;3.22;100.00;93624.44;5010607;28;19917;-58
2023/03/02 03:24:57;;;;;;;;;;;;;;;3.19;100.00;93619.94;5010476;28;19957;-56
2023/03/02 03:27:23;;;;;;;;;;;;;;;3.11;100.00;93630.63;5010518;28;20321;-57
2023/03/02 03:29:48;;;;;;;;;;;;;;;3.28;100.00;93630.63;5010206;28;20008;-57
2023/03/02 03:32:14;;;;;;;;;;;;;;;3.27;100.00;93629.16;5022791;28;20024;-57
2023/03/02 03:34:39;;;;;;;;;;;;;;;3.19;100.00;93634.34;5029985;28;20608;-57
2023/03/02 03:37:05;;;;;;;;;;;;;;;3.14;100.00;93635.09;5029950;28;19913;-57
2023/03/02 03:39:31;;;;;;;;;;;;;;;3.01;100.00;93629.41;5029716;28;19917;-57
2023/03/02 03:41:56;;;;;;;;;;;;;;;3.10;100.00;93629.13;5030117;28;19920;-57
2023/03/02 03:44:21;;;;;;;;;;;;;;;3.01;100.00;93630.13;5029695;28;20419;-57
2023/03/02 03:46:47;;;;;;;;;;;;;;;3.01;100.00;93632.84;5029713;28;19913;-57
2023/03/02 03:49:12;;;;;;;;;;;;;;;3.03;100.00;93632.38;5020160;28;19975;-57
2023/03/02 03:51:37;;;;;;;;;;;;;;;3.05;100.00;93630.63;5009647;28;19925;-57
2023/03/02 03:54:03;;;;;;;;;;;;;;;3.02;100.00;93631.63;5010533;28;20012;-57
2023/03/02 03:56:29;;;;;;;;;;;;;;;3.10;100.00;93631.13;5029314;28;20328;-57
2023/03/02 03:59:05;;;;;;;;;;;;;;;3.22;100.00;93641.53;5029463;28;20566;-57
2023/03/02 04:01:33;;;;;;;;;;;;;;;3.10;100.00;93636.59;5029502;28;20407;-55
2023/03/02 04:03:59;;;;;;;;;;;;;;;3.12;100.00;93634.13;5029475;28;19913;-57
2023/03/02 04:06:24;;;;;;;;;;;;;;;3.10;100.00;93636.59;5022780;28;19952;-57
2023/03/02 04:08:49;;;;;;;;;;;;;;;3.20;100.00;93635.84;5010015;28;20021;-57
2023/03/02 04:11:14;;;;;;;;;;;;;;;3.11;100.00;93643.53;5009448;28;20404;-57
2023/03/02 04:13:40;;;;;;;;;;;;;;;3.03;100.00;93635.81;5008642;28;19978;-57
2023/03/02 04:16:05;;;;;;;;;;;;;;;3.11;100.00;93638.06;5009653;28;19952;-57
2023/03/02 04:18:30;;;;;;;;;;;;;;;3.15;100.00;93631.13;5009354;28;20388;-56
2023/03/02 04:20:56;;;;;;;;;;;;;;;3.21;100.00;93642.03;5009557;28;20326;-57
2023/03/02 04:23:21;;;;;;;;;;;;;;;3.23;100.00;93645.75;5009017;28;20646;-57
2023/03/02 04:25:46;;;;;;;;;;;;;;;3.16;100.00;93638.09;5009286;28;19921;-57
2023/03/02 04:28:11;;;;;;;;;;;;;;;3.13;100.00;93639.06;5008849;28;19971;-57
2023/03/02 04:30:37;;;;;;;;;;;;;;;3.17;100.00;93641.53;5009540;28;19913;-57
2023/03/02 04:33:02;;;;;;;;;;;;;;;3.25;100.00;93639.81;5022607;28;20325;-57
2023/03/02 04:35:27;;;;;;;;;;;;;;;3.32;100.00;93639.28;5008849;28;19928;-57
2023/03/02 04:37:53;;;;;;;;;;;;;;;3.34;100.00;93642.28;5009211;28;19913;-57
2023/03/02 04:40:18;;;;;;;;;;;;;;;3.38;100.00;93648.25;5009493;28;19918;-57
2023/03/02 04:42:43;;;;;;;;;;;;;;;3.35;100.00;93646.50;5008622;28;20321;-57
2023/03/02 04:45:09;;;;;;;;;;;;;;;3.42;100.00;93646.00;5009161;28;19918;-56
2023/03/02 04:47:34;;;;;;;;;;;;;;;3.45;100.00;93639.53;5008873;28;20004;-57
2023/03/02 04:49:59;;;;;;;;;;;;;;;3.42;100.00;93633.09;5009129;28;19918;-57
2023/03/02 04:52:25;;;;;;;;;;;;;;;3.28;100.00;93638.81;5008803;28;19917;-57
2023/03/02 04:54:50;;;;;;;;;;;;;;;3.41;100.00;93642.53;5015451;28;19924;-57
2023/03/02 04:57:16;;;;;;;;;;;;;;;3.37;100.00;93638.56;5028677;28;19917;-57
2023/03/02 04:59:41;;;;;;;;;;;;;;;3.49;100.00;93638.03;5028680;28;19940;-57
2023/03/02 05:02:06;;;;;;;;;;;;;;;3.47;100.00;93631.59;5028111;28;19913;-57
2023/03/02 05:04:31;;;;;;;;;;;;;;;3.14;100.00;93637.09;5028478;28;19924;-57
2023/03/02 05:06:57;;;;;;;;;;;;;;;3.16;100.00;93642.78;5028325;28;20416;-57
2023/03/02 05:09:26;;;;;;;;;;;;;;;3.16;100.00;93643.53;5028669;28;19917;-57
2023/03/02 05:11:51;;;;;;;;;;;;;;;3.19;100.00;93644.50;5028174;28;19921;-57
2023/03/02 05:14:17;;;;;;;;;;;;;;;3.28;100.00;93652.44;5028070;28;20340;-57
2023/03/02 05:16:42;;;;;;;;;;;;;;;3.15;100.00;93655.69;5028423;28;19925;-57
2023/03/02 05:19:08;;;;;;;;;;;;;;;3.20;100.00;93648.75;5028252;28;19917;-57
2023/03/02 05:21:34;;;;;;;;;;;;;;;3.24;100.00;93657.41;5028181;28;19982;-57
2023/03/02 05:23:59;;;;;;;;;;;;;;;3.08;100.00;93659.63;5027934;28;20397;-57
2023/03/02 05:26:24;;;;;;;;;;;;;;;3.13;100.00;93649.22;5024458;28;19955;-56
2023/03/02 05:28:50;;;;;;;;;;;;;;;3.15;100.00;93644.75;5008542;28;19937;-57
2023/03/02 05:31:19;;;;;;;;;;;;;;;3.16;100.00;93640.06;5007875;28;20290;-57
2023/03/02 05:33:45;;;;;;;;;;;;;;;3.21;100.00;93650.97;5008341;28;19914;-57
2023/03/02 05:36:10;;;;;;;;;;;;;;;3.04;100.00;93650.22;5008209;28;19979;-57
2023/03/02 05:38:35;;;;;;;;;;;;;;;3.19;100.00;93653.44;5007950;28;20669;-57
2023/03/02 05:41:01;;;;;;;;;;;;;;;3.22;100.00;93657.16;5008455;28;19921;-57
2023/03/02 05:43:26;;;;;;;;;;;;;;;3.16;100.00;93651.72;5008358;28;20313;-56
2023/03/02 05:45:52;;;;;;;;;;;;;;;3.22;100.00;93651.72;5007902;28;20294;-57
2023/03/02 05:48:17;;;;;;;;;;;;;;;3.22;100.00;93657.16;5009758;28;20000;-57
2023/03/02 05:50:42;;;;;;;;;;;;;;;3.33;100.00;93648.97;5027782;28;19924;-57
2023/03/02 05:53:08;;;;;;;;;;;;;;;3.33;100.00;93657.16;5015024;28;19964;-57
2023/03/02 05:55:35;;;;;;;;;;;;;;;3.40;100.00;93653.94;5008093;28;19953;-57
2023/03/02 05:58:01;;;;;;;;;;;;;;;3.38;100.00;93659.16;5007872;28;19919;-57
2023/03/02 06:00:27;;;;;;;;;;;;;;;3.41;100.00;93661.63;5007867;28;19917;-57
2023/03/02 06:02:52;;;;;;;;;;;;;;;3.48;100.00;93663.13;5015667;28;19996;-57
2023/03/02 06:05:18;;;;;;;;;;;;;;;3.63;100.00;93669.81;5027846;28;19921;-57
2023/03/02 06:07:43;;;;;;;;;;;;;;;3.62;100.00;93670.28;5027552;28;20367;-57
2023/03/02 06:10:10;;;;;;;;;;;;;;;3.58;100.00;93670.53;5027549;28;20574;-57
2023/03/02 06:12:35;;;;;;;;;;;;;;;3.65;100.00;93674.75;5027179;28;20016;-57
2023/03/02 06:15:00;;;;;;;;;;;;;;;3.85;100.00;93674.47;5027253;28;20024;-57
2023/03/02 06:17:25;;;;;;;;;;;;;;;3.58;100.00;93676.00;5026346;28;19913;-57
2023/03/02 06:19:51;;;;;;;;;;;;;;;3.52;100.00;93686.19;5027748;28;19917;-57
2023/03/02 06:22:16;;;;;;;;;;;;;;;3.55;100.00;93685.19;5027404;28;19967;-57
2023/03/02 06:24:41;;;;;;;;;;;;;;;3.48;100.00;93687.69;5027311;28;19976;-57
2023/03/02 06:27:07;;;;;;;;;;;;;;;3.69;100.00;93683.44;5018401;28;19948;-57
2023/03/02 06:29:32;;;;;;;;;;;;;;;3.64;100.00;93686.91;5007424;28;20388;-57
2023/03/02 06:31:57;;;;;;;;;;;;;;;3.41;100.00;93685.44;5007258;28;19918;-57
2023/03/02 06:34:22;;;;;;;;;;;;;;;3.50;100.00;93685.19;5007354;28;20075;-57
2023/03/02 06:36:48;;;;;;;;;;;;;;;3.49;100.00;93689.16;5009334;28;20004;-57
2023/03/02 06:39:16;;;;;;;;;;;;;;;3.57;100.00;93684.69;5011189;28;20361;-57
2023/03/02 06:41:41;;;;;;;;;;;;;;;3.49;100.00;93683.69;5011650;28;19914;-57
2023/03/02 06:44:07;;;;;;;;;;;;;;;3.71;100.00;93683.69;5011003;28;19918;-57
2023/03/02 06:46:32;;;;;;;;;;;;;;;3.75;100.00;93675.97;5011372;28;19918;-57
2023/03/02 06:48:57;;;;;;;;;;;;;;;3.64;100.00;93684.19;5018357;28;19920;-57
2023/03/02 06:51:23;;;;;;;;;;;;;;;3.61;100.00;93677.75;5030853;28;19921;-57
2023/03/02 06:53:48;;;;;;;;;;;;;;;3.71;100.00;93681.69;5012549;28;19913;-56
2023/03/02 06:56:13;;;;;;;;;;;;;;;3.71;100.00;93691.88;5010942;28;20036;-57
2023/03/02 06:58:38;;;;;;;;;;;;;;;3.66;100.00;93690.63;5011093;28;19924;-57
2023/03/02 07:01:04;;;;;;;;;;;;;;;3.85;100.00;93688.13;5010866;28;19924;-57
2023/03/02 07:03:29;;;;;;;;;;;;;;;3.86;100.00;93697.81;5010836;28;19918;-57
2023/03/02 07:05:54;;;;;;;;;;;;;;;3.83;100.00;93704.28;5010880;28;19914;-57
2023/03/02 07:08:19;;;;;;;;;;;;;;;3.61;100.00;93702.31;5011117;28;20017;-57
2023/03/02 07:10:45;;;;;;;;;;;;;;;3.51;100.00;93706.53;5011179;28;19920;-57
2023/03/02 07:13:10;;;;;;;;;;;;;;;3.40;100.00;93705.81;5010821;28;20444;-57
2023/03/02 07:15:37;;;;;;;;;;;;;;;3.51;100.00;93706.53;5011049;28;19917;-57
2023/03/02 07:18:02;;;;;;;;;;;;;;;3.41;100.00;93713.47;5009218;28;19917;-57
2023/03/02 07:20:28;;;;;;;;;;;;;;;3.69;100.00;93705.28;5010612;28;19917;-57
2023/03/02 07:22:53;;;;;;;;;;;;;;;3.72;100.00;93704.28;5010650;28;19917;-56
2023/03/02 07:25:18;;;;;;;;;;;;;;;3.71;100.00;93694.59;5010381;28;19917;-57
2023/03/02 07:27:43;;;;;;;;;;;;;;;3.80;100.00;93699.81;5010571;28;19993;-57
2023/03/02 07:30:09;;;;;;;;;;;;;;;3.65;100.00;93710.25;5010502;28;20004;-57
2023/03/02 07:32:35;;;;;;;;;;;;;;;3.85;100.00;93701.78;5024145;28;19921;-57
2023/03/02 07:35:00;;;;;;;;;;;;;;;3.94;100.00;93703.50;5009854;28;19975;-57
2023/03/02 07:37:25;;;;;;;;;;;;;;;3.88;100.00;93697.31;5010312;28;19992;-57
2023/03/02 07:39:52;;;;;;;;;;;;;;;3.64;100.00;93695.84;5009505;28;20465;-56
2023/03/02 07:42:18;;;;;;;;;;;;;;;3.60;100.00;93691.88;5010278;28;19913;-57
2023/03/02 07:44:43;;;;;;;;;;;;;;;3.54;100.00;93697.34;5009876;28;19921;-57
2023/03/02 07:47:08;;;;;;;;;;;;;;;3.78;100.00;93696.84;5009515;28;20019;-57
2023/03/02 07:49:36;;;;;;;;;;;;;;;3.79;100.00;93704.53;5009466;28;19948;-57
2023/03/02 07:52:02;;;;;;;;;;;;;;;3.85;100.00;93701.78;5009702;28;20332;-56
2023/03/02 07:54:29;;;;;;;;;;;;;;;3.99;100.00;93700.00;5013569;28;20355;-55
2023/03/02 07:56:55;;;;;;;;;;;;;;;4.18;100.00;93698.97;5029874;28;19921;-57
2023/03/02 07:59:20;;;;;;;;;;;;;;;3.98;100.00;93699.28;5019353;28;20429;-57
2023/03/02 08:01:45;;;;;;;;;;;;;;;4.02;100.00;93693.56;5009647;28;19914;-57
2023/03/02 08:04:10;;;;;;;;;;;;;;;3.88;100.00;93697.31;5009659;28;19917;-57
2023/03/02 08:06:36;;;;;;;;;;;;;;;3.95;100.00;93700.28;5009759;28;19917;-57
2023/03/02 08:09:02;;;;;;;;;;;;;;;3.80;100.00;93708.00;5009780;28;19995;-57
2023/03/02 08:11:27;;;;;;;;;;;;;;;3.78;100.00;93699.56;5009780;28;19924;-57
2023/03/02 08:13:53;;;;;;;;;;;;;;;3.92;100.00;93701.25;5009620;28;19917;-57
2023/03/02 08:16:18;;;;;;;;;;;;;;;3.96;100.00;93696.31;5009420;28;19970;-57
2023/03/02 08:18:43;;;;;;;;;;;;;;;4.00;100.00;93701.50;5009611;28;19980;-57
2023/03/02 08:21:10;;;;;;;;;;;;;;;3.64;100.00;93697.81;5009679;28;20368;-56
2023/03/02 08:23:35;;;;;;;;;;;;;;;3.77;100.00;93698.06;5009544;28;19913;-57
2023/03/02 08:26:00;;;;;;;;;;;;;;;3.65;100.00;93691.13;5009212;28;20409;-57
2023/03/02 08:28:26;;;;;;;;;;;;;;;3.91;100.00;93699.03;5009233;28;20004;-57
2023/03/02 08:30:57;;;;;;;;;;;;;;;4.00;100.00;93693.31;5010378;28;20333;-57
2023/03/02 08:33:23;;;;;;;;;;;;;;;3.99;100.00;93698.03;5021355;28;20004;-57
2023/03/02 08:35:57;;;;;;;;;;;;;;;3.88;100.00;93705.53;5008920;28;20465;-57
2023/03/02 08:38:23;;;;;;;;;;;;;;;3.85;100.00;93699.06;5009074;28;19918;-57
2023/03/02 08:40:50;;;;;;;;;;;;;;;4.17;100.00;93699.47;5009439;28;19917;-57
2023/03/02 08:43:15;;;;;;;;;;;;;;;4.06;100.00;93691.31;5008962;28;19921;-57
2023/03/02 08:45:40;;;;;;;;;;;;;;;4.04;100.00;93691.06;5008985;28;19917;-57
2023/03/02 08:48:06;;;;;;;;;;;;;;;4.21;100.00;93692.50;5009252;28;19914;-57
2023/03/02 08:50:31;;;;;;;;;;;;;;;4.13;100.00;93688.06;5029024;28;20320;-57
2023/03/02 08:52:56;;;;;;;;;;;;;;;4.03;100.00;93689.59;5017807;28;19960;-57
2023/03/02 08:55:21;;;;;;;;;;;;;;;4.06;100.00;93694.03;5016589;28;19913;-57
2023/03/02 08:57:47;;;;;;;;;;;;;;;3.99;100.00;93684.38;5028949;28;19921;-57
2023/03/02 09:00:15;;;;;;;;;;;;;;;3.91;100.00;93691.59;5028473;28;20384;-57
2023/03/02 09:02:40;;;;;;;;;;;;;;;4.14;100.00;93690.28;5028472;28;19921;-57
2023/03/02 09:05:06;;;;;;;;;;;;;;;3.75;100.00;93686.91;5028365;28;19924;-57
2023/03/02 09:07:31;;;;;;;;;;;;;;;3.90;100.00;93681.91;5028473;28;19952;-57
2023/03/02 09:09:56;;;;;;;;;;;;;;;3.87;100.00;93688.38;5028667;28;19924;-56
2023/03/02 09:12:21;;;;;;;;;;;;;;;3.94;100.00;93685.16;5028377;28;19931;-57
2023/03/02 09:14:47;;;;;;;;;;;;;;;4.00;100.00;93685.88;5028453;28;19917;-57
2023/03/02 09:17:14;;;;;;;;;;;;;;;4.19;100.00;93683.31;5028180;28;20417;-57
2023/03/02 09:19:40;;;;;;;;;;;;;;;4.13;100.00;93683.34;5028088;28;19917;-57
2023/03/02 09:22:07;;;;;;;;;;;;;;;3.79;100.00;93681.91;5028059;28;19948;-57
2023/03/02 09:24:32;;;;;;;;;;;;;;;3.95;100.00;93678.44;5028147;28;20059;-57
2023/03/02 09:26:57;;;;;;;;;;;;;;;3.94;100.00;93674.22;5020028;28;20765;-57
2023/03/02 09:29:23;;;;;;;;;;;;;;;3.86;100.00;93675.94;5008373;28;19917;-57
2023/03/02 09:31:48;;;;;;;;;;;;;;;3.91;100.00;93683.41;5016871;28;20397;-57
2023/03/02 09:34:13;;;;;;;;;;;;;;;3.97;100.00;93675.19;5013133;28;19922;-56
2023/03/02 09:36:39;;;;;;;;;;;;;;;3.67;100.00;93680.47;5007822;28;20501;-57
2023/03/02 09:39:08;;;;;;;;;;;;;;;3.76;100.00;93675.50;5008395;28;19917;-57
2023/03/02 09:41:52;;;;;;;;;;;;;;;3.79;100.00;93679.19;5008368;28;19917;-57
2023/03/02 09:44:36;;;;;;;;;;;;;;;3.85;100.00;93686.13;5007781;28;20393;-57
2023/03/02 09:47:08;;;;;;;;;;;;;;;3.87;100.00;93677.47;5007712;28;19925;-57
2023/03/02 09:49:52;;;;;;;;;;;;;;;3.83;100.00;93671.50;5018984;28;20031;-56
2023/03/02 09:52:30;;;;;;;;;;;;;;;3.97;100.00;93684.13;5013766;28;20422;-57
2023/03/02 09:54:55;;;;;;;;;;;;;;;4.00;100.00;93680.41;5015547;28;19913;-57
2023/03/02 09:57:22;;;;;;;;;;;;;;;4.13;100.00;93683.34;5027962;28;20371;-57
2023/03/02 09:59:56;;;;;;;;;;;;;;;4.07;100.00;93679.88;5026470;28;19924;-57
2023/03/02 10:02:28;;;;;;;;;;;;;;;4.03;100.00;93676.66;5027248;28;19917;-57
2023/03/02 10:04:55;;;;;;;;;;;;;;;4.02;100.00;93667.00;5027896;28;19924;-57
2023/03/02 10:07:30;;;;;;;;;;;;;;;4.05;100.00;93676.19;5027853;28;19936;-57
2023/03/02 10:10:02;;;;;;;;;;;;;;;3.98;100.00;93671.97;5027773;28;19941;-57
2023/03/02 10:12:27;;;;;;;;;;;;;;;4.11;100.00;93674.91;5029106;28;19917;-57
2023/03/02 10:14:52;;;;;;;;;;;;;;;3.99;100.00;93667.97;5031499;28;20508;-57
2023/03/02 10:17:18;;;;;;;;;;;;;;;3.85;100.00;93675.22;5031146;28;20016;-57
2023/03/02 10:19:44;;;;;;;;;;;;;;;3.97;100.00;93669.72;5031813;28;19995;-57
2023/03/02 10:22:33;;;;;;;;;;;;;;;3.88;100.00;93667.28;5030367;28;19955;-58
2023/03/02 10:24:58;;;;;;;;;;;;;;;3.66;100.00;93665.34;5020364;28;19979;-57
2023/03/02 10:27:25;;;;;;;;;;;;;;;3.88;100.00;93657.06;5019976;28;19921;-57
2023/03/02 10:30:26;;;;;;;;;;;;;;;3.77;100.00;93663.31;5010301;28;19913;-57
2023/03/02 10:32:51;;;;;;;;;;;;;;;3.83;100.00;93660.59;4982304;28;19921;-57
2023/03/02 10:35:21;;;;;;;;;;;;;;;3.84;100.00;93656.59;5031004;28;20349;-57
2023/03/02 10:37:47;;;;;;;;;;;;;;;3.81;100.00;93657.63;5031175;28;20012;-57
2023/03/02 10:40:28;;;;;;;;;;;;;;;3.67;100.00;93653.16;5030110;28;20003;-57
2023/03/02 10:42:53;;;;;;;;;;;;;;;3.87;100.00;93650.16;5029684;28;19917;-57
2023/03/02 10:45:24;;;;;;;;;;;;;;;3.59;100.00;93647.47;5031039;28;19923;-57
2023/03/02 10:48:06;;;;;;;;;;;;;;;3.73;100.00;93646.44;5023011;28;19957;-57
2023/03/02 10:50:31;;;;;;;;;;;;;;;4.07;100.00;93646.38;5011202;28;19996;-57
2023/03/02 10:52:57;;;;;;;;;;;;;;;4.10;100.00;93650.81;5011049;28;20008;-56
2023/03/02 10:55:22;;;;;;;;;;;;;;;4.17;100.00;93644.81;5011302;28;19918;-57
2023/03/02 10:58:01;;;;;;;;;;;;;;;3.84;100.00;93634.75;5011184;28;20408;-56
2023/03/02 11:00:27;;;;;;;;;;;;;;;4.24;100.00;93639.59;5010879;28;19917;-56
2023/03/02 11:02:53;;;;;;;;;;;;;;;4.42;100.00;93628.06;5011289;28;19924;-57
2023/03/02 11:05:30;;;;;;;;;;;;;;;4.59;100.00;93633.47;5011062;28;19918;-57
2023/03/02 11:08:02;;;;;;;;;;;;;;;4.70;100.00;93630.66;5009741;28;19917;-57
2023/03/02 11:10:28;;;;;;;;;;;;;;;4.60;100.00;93627.50;5011177;28;19920;-56
2023/03/02 11:12:54;;;;;;;;;;;;;;;4.70;100.00;93625.19;5010585;28;19933;-57
2023/03/02 11:15:25;;;;;;;;;;;;;;;4.85;100.00;93625.56;5011028;28;19917;-57
2023/03/02 11:17:56;;;;;;;;;;;;;;;4.90;100.00;93624.81;5010966;28;19917;-57
2023/03/02 11:20:25;;;;;;;;;;;;;;;4.91;100.00;93631.78;5010720;28;20308;-57
2023/03/02 11:22:52;;;;;;;;;;;;;;;5.17;99.91;93628.59;5010439;28;20052;-57
2023/03/02 11:25:21;;;;;;;;;;;;;;;5.03;98.35;93624.22;5009090;28;19925;-57
2023/03/02 11:27:47;;;;;;;;;;;;;;;4.80;99.49;93628.38;5009064;28;19924;-57
2023/03/02 11:30:14;;;;;;;;;;;;;;;4.63;100.00;93627.72;5009423;28;20008;-57
2023/03/02 11:32:49;;;;;;;;;;;;;;;4.79;100.00;93627.63;5024570;28;19921;-57
2023/03/02 11:35:30;;;;;;;;;;;;;;;4.68;100.00;93626.97;5029811;28;20585;-57
2023/03/02 11:37:58;;;;;;;;;;;;;;;4.72;100.00;93630.16;5029881;28;19924;-57
2023/03/02 11:40:29;;;;;;;;;;;;;;;4.76;100.00;93628.66;5028700;28;19920;-57
2023/03/02 11:42:55;;;;;;;;;;;;;;;4.89;100.00;93628.06;5029803;28;19921;-56
2023/03/02 11:45:46;;;;;;;;;;;;;;;4.81;99.90;93627.13;5011777;28;19923;-57
2023/03/02 11:48:18;;;;;;;;;;;;;;;4.75;99.80;93629.13;5008590;28;19913;-57
2023/03/02 11:50:47;;;;;;;;;;;;;;;4.57;100.00;93623.03;5029737;28;19917;-57
2023/03/02 11:53:13;;;;;;;;;;;;;;;4.35;100.00;93625.84;5024734;28;19922;-57
2023/03/02 11:55:44;;;;;;;;;;;;;;;4.32;100.00;93624.16;5008638;28;20044;-57
2023/03/02 11:58:11;;;;;;;;;;;;;;;4.24;100.00;93623.19;5010091;28;20007;-57
2023/03/02 12:00:37;;;;;;;;;;;;;;;4.17;100.00;93620.25;5008475;28;19940;-57
2023/03/02 12:03:04;;;;;;;;;;;;;;;4.03;100.00;93608.38;5008784;28;19936;-57
2023/03/02 12:05:30;;;;;;;;;;;;;;;3.78;100.00;93606.72;5009652;28;19914;-56
2023/03/02 12:08:05;;;;;;;;;;;;;;;4.09;100.00;93608.34;5009360;28;19996;-57
2023/03/02 12:10:33;;;;;;;;;;;;;;;3.96;100.00;93608.16;5008842;28;20301;-57
2023/03/02 12:13:05;;;;;;;;;;;;;;;4.00;100.00;93614.84;5009386;28;19918;-57
2023/03/02 12:15:34;;;;;;;;;;;;;;;4.15;100.00;93611.81;5008019;28;19967;-57
2023/03/02 12:17:59;;;;;;;;;;;;;;;4.27;100.00;93611.25;5009752;28;19918;-57
2023/03/02 12:20:26;;;;;;;;;;;;;;;4.59;100.00;93608.88;5009382;28;19983;-57
2023/03/02 12:22:51;;;;;;;;;;;;;;;4.53;100.00;93608.13;5009090;28;19921;-57
2023/03/02 12:25:17;;;;;;;;;;;;;;;4.70;100.00;93625.19;5009641;28;19913;-57
2023/03/02 12:27:42;;;;;;;;;;;;;;;4.90;100.00;93616.59;5023310;28;20397;-57
2023/03/02 12:30:08;;;;;;;;;;;;;;;5.08;100.00;93615.25;5028904;28;19913;-57
2023/03/02 12:32:33;;;;;;;;;;;;;;;5.07;99.46;93609.00;5013232;28;20413;-57
2023/03/02 12:34:59;;;;;;;;;;;;;;;4.88;100.00;93599.22;5008401;28;19956;-57
2023/03/02 12:37:25;;;;;;;;;;;;;;;4.81;100.00;93589.56;5007886;28;20369;-57
2023/03/02 12:40:09;;;;;;;;;;;;;;;5.15;100.00;93590.81;5012611;28;19921;-57
2023/03/02 12:42:40;;;;;;;;;;;;;;;5.17;99.49;93595.75;5028878;28;19924;-57
2023/03/02 12:45:14;;;;;;;;;;;;;;;5.29;99.03;93602.63;5028483;28;20468;-57
2023/03/02 12:47:40;;;;;;;;;;;;;;;4.97;97.97;93590.69;5028452;28;19917;-56